Time;durP1;ratioP1;P1;durP2;ratioP2;P2;SDS_P1;SDS_P2;PMS_P1;PMS_P2;Temp;Humidity;BMP_temperature;BMP_pressure;BME280_temperature;BME280_humidity;BME280_pressure;Samples;Min_cycle;Max_cycle;Signal;HPM_P1;HPM_P2
2022/01/12 00:01:16;;;;;;;72.90;34.88;;;4.50;99.90;;;;;;6158295;23;20343;-75
2022/01/12 00:03:43;;;;;;;71.85;33.67;;;5.30;99.90;;;;;;6185165;23;20012;-75
2022/01/12 00:06:09;;;;;;;71.70;36.03;;;4.50;99.90;;;;;;6185243;23;20072;-75
2022/01/12 00:08:38;;;;;;;71.82;34.28;;;4.50;99.90;;;;;;6159016;23;20020;-75
2022/01/12 00:11:07;;;;;;;70.85;34.08;;;4.50;99.90;;;;;;6158623;23;20024;-75
2022/01/12 00:13:36;;;;;;;69.80;33.72;;;4.50;99.90;;;;;;6134452;23;20035;-75
2022/01/12 00:16:03;;;;;;;81.32;34.60;;;4.50;99.90;;;;;;6184238;23;20411;-75
2022/01/12 00:18:32;;;;;;;78.97;36.28;;;4.50;99.90;;;;;;6158774;23;20332;-75
2022/01/12 00:21:02;;;;;;;75.18;34.33;;;4.50;99.90;;;;;;6185017;23;20431;-75
2022/01/12 00:23:27;;;;;;;78.75;35.60;;;4.50;99.90;;;;;;6134285;23;20091;-75
2022/01/12 00:26:12;;;;;;;77.70;34.72;;;4.50;99.90;;;;;;6159286;23;20020;-75
2022/01/12 00:34:32;;;;;;;77.50;34.30;;;4.60;99.90;;;;;;6041415;23;20098;-75
2022/01/12 00:37:00;;;;;;;77.97;34.58;;;4.60;99.90;;;;;;6136245;23;20110;-75
2022/01/12 00:39:26;;;;;;;81.78;36.22;;;5.20;99.90;;;;;;6158604;23;20013;-75
2022/01/12 00:41:52;;;;;;;77.57;35.33;;;4.60;99.90;;;;;;6185109;23;20056;-75
2022/01/12 00:44:33;;;;;;;86.20;34.35;;;4.60;99.90;;;;;;6125704;23;20022;-75
2022/01/12 00:47:00;;;;;;;84.93;34.47;;;4.60;99.90;;;;;;6102946;23;20014;-75
2022/01/12 00:49:26;;;;;;;82.00;36.22;;;5.20;99.90;;;;;;6124288;23;20014;-75
2022/01/12 00:51:54;;;;;;;91.50;36.90;;;4.60;99.90;;;;;;6124218;23;20065;-75
2022/01/12 00:54:21;;;;;;;88.75;36.90;;;4.60;99.90;;;;;;6100258;23;20512;-75
2022/01/12 00:56:47;;;;;;;90.32;35.95;;;4.60;99.90;;;;;;6123929;23;20206;-75
2022/01/12 00:59:16;;;;;;;91.90;35.70;;;4.70;99.90;;;;;;6100077;23;20014;-75
2022/01/12 01:01:42;;;;;;;97.15;38.08;;;4.60;99.90;;;;;;6124263;23;20448;-75
2022/01/12 01:04:07;;;;;;;85.80;36.53;;;4.70;99.90;;;;;;6099991;23;20025;-75
2022/01/12 01:06:37;;;;;;;88.28;36.42;;;4.70;99.90;;;;;;6123581;23;20018;-75
2022/01/12 01:09:07;;;;;;;83.35;34.55;;;4.70;99.90;;;;;;6124237;23;20014;-75
2022/01/12 01:11:33;;;;;;;85.03;36.03;;;4.70;99.90;;;;;;6125481;23;20330;-75
2022/01/12 01:14:02;;;;;;;90.05;37.75;;;4.70;99.90;;;;;;6099826;23;20018;-75
2022/01/12 01:27:09;;;;;;;115.43;38.50;;;4.70;99.90;;;;;;6103597;23;20014;-78
2022/01/12 01:29:35;;;;;;;124.53;36.85;;;4.70;99.90;;;;;;6124171;23;20033;-78
2022/01/12 01:32:01;;;;;;;109.38;38.70;;;4.70;99.90;;;;;;6125975;23;20050;-78
2022/01/12 01:34:28;;;;;;;103.13;37.45;;;4.70;99.90;;;;;;6125761;23;20017;-77
2022/01/12 01:36:55;;;;;;;107.90;37.60;;;4.80;99.90;;;;;;6099592;23;20022;-77
2022/01/12 01:39:24;;;;;;;110.63;36.00;;;4.70;99.90;;;;;;6099574;23;20018;-77
2022/01/12 01:42:02;;;;;;;140.98;36.47;;;4.80;99.90;;;;;;6124029;23;20515;-78
2022/01/12 01:55:17;;;;;;;93.25;34.92;;;4.70;99.90;;;;;;6123601;23;20022;-77
2022/01/12 01:57:43;;;;;;;84.38;34.80;;;4.90;99.90;;;;;;6124550;23;20014;-77
2022/01/12 02:00:13;;;;;;;83.90;36.63;;;4.70;99.90;;;;;;6123939;23;20014;-77
2022/01/12 02:02:40;;;;;;;135.77;36.85;;;4.80;99.90;;;;;;6125526;23;20487;-77
2022/01/12 02:05:06;;;;;;;108.93;34.97;;;4.90;99.90;;;;;;6125767;23;20100;-77
2022/01/12 02:07:33;;;;;;;90.72;35.83;;;4.80;99.90;;;;;;6101812;23;20045;-77
2022/01/12 02:09:59;;;;;;;91.07;34.10;;;5.40;99.90;;;;;;6125939;23;20393;-78
2022/01/12 02:12:31;;;;;;;85.43;33.80;;;4.80;99.90;;;;;;6125287;23;20056;-78
2022/01/12 02:15:01;;;;;;;86.60;34.10;;;5.00;99.90;;;;;;6125740;23;20018;-79
2022/01/12 02:17:35;;;;;;;88.40;32.92;;;4.80;99.90;;;;;;6127187;23;20010;-79
2022/01/12 02:39:49;;;;;;;71.25;29.52;;;4.90;99.90;;;;;;6125900;23;20429;-80
2022/01/12 02:42:17;;;;;;;69.50;28.58;;;4.90;99.90;;;;;;6132315;23;20018;-79
2022/01/12 02:55:42;;;;;;;59.33;27.27;;;5.00;99.90;;;;;;6159746;23;20021;-80
2022/01/12 02:58:07;;;;;;;67.10;27.98;;;5.20;99.90;;;;;;6186063;23;20339;-80
2022/01/12 03:00:58;;;;;;;63.53;28.33;;;5.20;99.90;;;;;;6159044;23;20623;-80
2022/01/12 03:03:23;;;;;;;62.75;28.20;;;5.50;99.90;;;;;;6159449;23;20020;-80
2022/01/12 03:06:01;;;;;;;74.85;29.08;;;5.10;99.90;;;;;;6159596;23;20020;-80
2022/01/12 03:08:28;;;;;;;63.28;27.23;;;5.00;99.90;;;;;;6159718;23;20019;-80
2022/01/12 03:10:55;;;;;;;70.63;28.92;;;5.00;99.90;;;;;;6160285;23;20052;-80
2022/01/12 03:13:21;;;;;;;61.58;27.75;;;5.00;99.90;;;;;;6159010;23;20096;-80
2022/01/12 03:15:48;;;;;;;64.93;28.08;;;4.90;99.90;;;;;;6134961;23;20017;-80
2022/01/12 03:18:15;;;;;;;63.25;27.15;;;4.90;99.90;;;;;;6159203;23;20017;-80
2022/01/12 03:20:42;;;;;;;60.28;27.75;;;5.30;99.90;;;;;;6135004;23;20024;-80
2022/01/12 03:23:07;;;;;;;65.10;28.17;;;4.80;99.90;;;;;;6159660;23;20012;-80
2022/01/12 03:25:33;;;;;;;61.55;27.73;;;4.80;99.90;;;;;;6134987;23;20024;-80
2022/01/12 03:28:02;;;;;;;60.05;26.85;;;4.70;99.90;;;;;;6159571;23;20092;-80
2022/01/12 03:30:34;;;;;;;59.55;26.90;;;4.70;99.90;;;;;;6134969;23;20013;-80
2022/01/12 03:36:12;;;;;;;60.67;26.55;;;4.60;99.90;;;;;;6155332;23;20053;-80
2022/01/12 03:38:38;;;;;;;59.00;27.05;;;4.60;99.90;;;;;;6159250;23;20021;-80
2022/01/12 03:41:04;;;;;;;56.55;25.88;;;4.50;99.90;;;;;;6159098;23;20017;-81
2022/01/12 03:43:40;;;;;;;51.50;24.75;;;4.50;99.90;;;;;;6159127;23;20047;-78
2022/01/12 03:46:06;;;;;;;56.03;24.70;;;4.50;99.90;;;;;;6159102;23;20009;-78
2022/01/12 03:48:32;;;;;;;61.45;26.63;;;5.40;99.90;;;;;;6185903;23;20016;-78
2022/01/12 03:50:58;;;;;;;53.13;26.10;;;4.40;99.90;;;;;;6185220;23;20032;-77
2022/01/12 03:53:24;;;;;;;54.45;25.83;;;4.40;99.90;;;;;;6185615;23;20013;-76
2022/01/12 03:55:50;;;;;;;51.97;25.25;;;4.30;99.90;;;;;;6185550;23;20024;-76
2022/01/12 03:58:15;;;;;;;58.13;25.17;;;4.30;99.90;;;;;;6159037;23;20009;-76
2022/01/12 04:00:41;;;;;;;64.18;27.27;;;4.30;99.90;;;;;;6159144;23;20017;-75
2022/01/12 04:03:08;;;;;;;86.93;27.08;;;4.30;99.90;;;;;;6159310;23;20013;-75
2022/01/12 04:08:20;;;;;;;85.97;26.73;;;4.20;99.90;;;;;;6185893;23;20024;-75
2022/01/12 04:10:52;;;;;;;70.78;25.85;;;4.20;99.90;;;;;;6185913;23;20374;-76
2022/01/12 04:13:19;;;;;;;92.05;26.05;;;4.20;99.90;;;;;;6185540;23;20055;-75
2022/01/12 04:15:47;;;;;;;112.90;25.73;;;4.20;99.90;;;;;;6134382;23;20312;-76
2022/01/12 04:18:13;;;;;;;149.65;24.45;;;4.40;99.90;;;;;;6134512;23;20067;-76
2022/01/12 04:20:45;;;;;;;132.50;22.98;;;4.20;99.90;;;;;;6109719;23;20100;-76
2022/01/12 04:23:17;;;;;;;109.22;22.02;;;4.20;99.90;;;;;;6133723;23;20321;-77
2022/01/12 04:25:48;;;;;;;102.45;22.45;;;4.10;99.90;;;;;;6158988;23;20013;-77
2022/01/12 04:28:16;;;;;;;130.35;21.45;;;4.10;99.90;;;;;;6134259;23;20083;-76
2022/01/12 04:30:42;;;;;;;115.43;20.40;;;4.10;99.90;;;;;;6134068;23;20023;-76
2022/01/12 04:33:09;;;;;;;99.88;20.85;;;4.10;99.90;;;;;;6134344;23;20021;-78
2022/01/12 04:35:39;;;;;;;133.52;21.00;;;4.10;99.90;;;;;;6159022;23;20092;-78
2022/01/12 04:38:08;;;;;;;113.63;19.42;;;4.00;99.90;;;;;;6185565;23;20084;-79
2022/01/12 04:40:34;;;;;;;129.77;19.98;;;4.00;99.90;;;;;;6134337;23;20075;-78
2022/01/12 04:43:00;;;;;;;99.95;19.58;;;4.00;99.90;;;;;;6134145;23;20025;-78
2022/01/12 04:50:22;;;;;;;112.00;18.42;;;3.50;99.90;;;;;;6159082;23;20017;-78
2022/01/12 04:52:48;;;;;;;96.72;18.55;;;3.90;99.90;;;;;;6158287;23;20016;-79
2022/01/12 04:55:13;;;;;;;81.32;17.92;;;3.80;99.90;;;;;;6158882;23;20017;-79
2022/01/12 04:57:39;;;;;;;83.07;18.73;;;3.80;99.90;;;;;;6134139;23;20013;-79
2022/01/12 05:00:14;;;;;;;78.03;16.52;;;3.80;99.90;;;;;;6185117;23;20024;-79
2022/01/12 05:08:22;;;;;;;88.82;17.30;;;4.60;99.90;;;;;;6137925;23;20013;-77
2022/01/12 05:13:34;;;;;;;99.50;14.80;;;3.70;99.90;;;;;;6158127;23;20021;-77
2022/01/12 05:16:01;;;;;;;60.72;17.10;;;3.60;99.90;;;;;;6158682;23;20021;-78
2022/01/12 05:18:31;;;;;;;84.70;15.65;;;3.50;99.90;;;;;;6158582;23;20096;-78
2022/01/12 05:20:57;;;;;;;82.88;14.57;;;3.80;99.90;;;;;;6184672;23;20017;-78
2022/01/12 05:23:29;;;;;;;65.15;14.52;;;3.50;99.90;;;;;;6158826;23;20092;-78
2022/01/12 05:25:55;;;;;;;77.30;15.10;;;3.40;99.90;;;;;;6184937;23;20013;-78
2022/01/12 05:28:22;;;;;;;59.88;14.05;;;3.40;99.90;;;;;;6133439;23;20089;-78
2022/01/12 05:30:49;;;;;;;76.20;15.50;;;3.30;99.90;;;;;;6158380;23;20020;-79
2022/01/12 05:33:15;;;;;;;46.85;13.80;;;3.40;99.90;;;;;;6185254;23;20017;-77
2022/01/12 05:35:42;;;;;;;61.40;14.98;;;3.40;99.90;;;;;;6134374;23;20021;-77
2022/01/12 05:38:12;;;;;;;90.72;14.68;;;3.50;99.90;;;;;;6135903;23;20016;-77
2022/01/12 05:40:45;;;;;;;105.05;16.00;;;3.40;99.90;;;;;;6160618;23;20012;-77
2022/01/12 05:43:11;;;;;;;73.43;15.13;;;3.40;99.90;;;;;;6187007;23;20028;-77
2022/01/12 05:45:44;;;;;;;106.78;16.23;;;3.40;99.90;;;;;;6186285;23;20017;-77
2022/01/12 05:50:46;;;;;;;73.47;13.05;;;3.40;99.90;;;;;;6160514;23;20097;-78
2022/01/12 05:53:12;;;;;;;112.05;14.20;;;3.40;99.90;;;;;;6160090;23;20013;-78
2022/01/12 05:55:38;;;;;;;86.95;13.55;;;3.40;99.90;;;;;;6136017;23;20021;-77
2022/01/12 05:58:04;;;;;;;97.25;13.55;;;3.40;99.90;;;;;;6187120;23;20045;-77
2022/01/12 06:00:33;;;;;;;102.72;13.57;;;3.80;99.90;;;;;;6135304;23;20021;-77
2022/01/12 06:02:58;;;;;;;73.47;12.77;;;3.40;99.90;;;;;;6135681;23;20092;-77
2022/01/12 06:05:24;;;;;;;67.38;12.48;;;3.40;99.90;;;;;;6186494;23;20045;-77
2022/01/12 06:07:51;;;;;;;83.20;13.68;;;3.40;99.90;;;;;;6186821;23;20013;-77
2022/01/12 06:10:21;;;;;;;98.25;13.38;;;3.40;99.90;;;;;;6159970;23;20063;-76
2022/01/12 06:12:47;;;;;;;86.93;13.20;;;3.30;99.90;;;;;;6160241;23;20051;-76
2022/01/12 06:15:12;;;;;;;82.35;12.90;;;3.30;99.90;;;;;;6186904;23;20029;-77
2022/01/12 06:17:38;;;;;;;78.70;13.57;;;3.30;99.90;;;;;;6159192;23;20343;-79
2022/01/12 06:20:06;;;;;;;55.83;13.40;;;3.40;99.90;;;;;;6135050;23;20017;-78
2022/01/12 06:22:34;;;;;;;73.38;13.60;;;3.40;99.90;;;;;;6160247;23;20020;-78
2022/01/12 06:25:02;;;;;;;59.03;13.40;;;3.40;99.90;;;;;;6186405;23;20464;-78
2022/01/12 06:27:29;;;;;;;49.63;12.90;;;3.40;99.90;;;;;;6186821;23;20060;-77
2022/01/12 06:31:10;;;;;;;48.33;12.45;;;3.50;99.90;;;;;;6160138;23;20027;-77
2022/01/12 06:33:00;;;;;;;78.40;12.75;;;3.40;99.90;;;;;;6159307;23;20092;-78
2022/01/12 06:35:26;;;;;;;51.35;12.05;;;3.40;99.90;;;;;;6135181;23;20048;-78
2022/01/12 06:37:53;;;;;;;68.90;12.95;;;3.40;99.90;;;;;;6135338;23;20024;-78
2022/01/12 06:40:19;;;;;;;64.75;11.80;;;3.60;99.90;;;;;;6159888;23;20096;-77
2022/01/12 06:42:46;;;;;;;79.65;13.38;;;3.50;99.90;;;;;;6159943;23;20495;-77
2022/01/12 06:45:12;;;;;;;80.03;13.57;;;3.40;99.90;;;;;;6159878;23;20452;-77
2022/01/12 06:47:38;;;;;;;80.53;13.18;;;3.40;99.90;;;;;;6134703;23;20017;-77
2022/01/12 06:50:06;;;;;;;150.52;14.75;;;3.90;99.90;;;;;;6159506;23;20023;-78
2022/01/12 06:52:32;;;;;;;77.45;11.95;;;3.40;99.90;;;;;;6160325;23;20019;-77
2022/01/12 06:54:57;;;;;;;65.97;11.95;;;3.40;99.90;;;;;;6134955;23;20096;-79
2022/01/12 06:57:23;;;;;;;60.13;11.10;;;3.50;99.90;;;;;;6159435;23;20020;-79
2022/01/12 06:59:49;;;;;;;96.45;13.07;;;4.10;99.90;;;;;;6159826;23;20017;-79
2022/01/12 07:02:15;;;;;;;52.33;12.35;;;3.40;99.90;;;;;;6158581;23;20439;-71
2022/01/12 07:04:40;;;;;;;89.70;11.65;;;3.40;99.90;;;;;;6158188;23;20013;-70
2022/01/12 07:07:06;;;;;;;55.05;11.25;;;3.40;99.90;;;;;;6185375;23;20045;-70
2022/01/12 07:09:32;;;;;;;61.03;11.60;;;3.40;99.90;;;;;;6177596;23;20084;-71
2022/01/12 07:11:57;;;;;;;70.85;13.13;;;3.40;99.90;;;;;;6153361;23;20055;-76
2022/01/12 07:14:23;;;;;;;82.97;12.02;;;3.40;99.90;;;;;;6129525;23;20027;-76
2022/01/12 07:16:49;;;;;;;82.22;12.35;;;3.40;99.90;;;;;;6153243;23;20020;-76
2022/01/12 07:19:18;;;;;;;70.05;12.02;;;3.60;99.90;;;;;;6153520;23;20017;-76
2022/01/12 07:21:44;;;;;;;87.63;12.38;;;3.40;99.90;;;;;;6153551;23;20103;-76
2022/01/12 07:24:12;;;;;;;164.82;12.40;;;3.40;99.90;;;;;;6129151;23;20040;-76
2022/01/12 07:26:38;;;;;;;85.65;11.38;;;3.40;99.90;;;;;;6180748;23;20049;-75
2022/01/12 07:29:03;;;;;;;101.53;12.70;;;3.40;99.90;;;;;;6179897;23;20052;-75
2022/01/12 07:31:32;;;;;;;92.82;12.02;;;3.40;99.90;;;;;;6129891;23;20024;-76
2022/01/12 07:33:58;;;;;;;93.88;12.38;;;3.30;99.90;;;;;;6180553;23;20096;-76
2022/01/12 07:36:24;;;;;;;75.65;12.75;;;3.30;99.90;;;;;;6153772;23;20025;-74
2022/01/12 07:38:55;;;;;;;102.10;12.00;;;3.30;99.90;;;;;;6129303;23;20013;-73
2022/01/12 07:41:24;;;;;;;81.57;10.93;;;3.40;99.90;;;;;;6154487;23;20013;-74
2022/01/12 07:43:50;;;;;;;70.22;11.63;;;3.20;99.90;;;;;;6126403;23;20022;-75
2022/01/12 07:46:18;;;;;;;60.10;9.48;;;3.80;99.90;;;;;;6119452;23;20021;-75
2022/01/12 07:48:44;;;;;;;37.70;9.45;;;3.20;99.90;;;;;;6121516;23;20017;-75
2022/01/12 07:51:09;;;;;;;32.38;8.43;;;3.10;99.90;;;;;;6095563;23;20104;-75
2022/01/12 07:53:35;;;;;;;64.15;9.05;;;2.90;99.90;;;;;;6071570;23;20375;-75
2022/01/12 07:56:24;;;;;;;64.07;9.23;;;3.10;99.90;;;;;;6119961;23;20018;-77
2022/01/12 07:58:53;;;;;;;42.67;8.13;;;3.10;99.90;;;;;;6120644;23;20094;-73
2022/01/12 08:01:18;;;;;;;61.72;8.38;;;3.70;99.90;;;;;;6124973;23;20049;-74
2022/01/12 08:03:44;;;;;;;64.00;8.25;;;3.00;99.90;;;;;;6124383;23;20073;-76
2022/01/12 08:06:13;;;;;;;53.67;8.70;;;3.00;99.90;;;;;;6124596;23;20049;-76
2022/01/12 08:08:39;;;;;;;36.13;8.63;;;3.10;99.90;;;;;;6126039;23;20010;-75
2022/01/12 08:11:04;;;;;;;40.40;7.90;;;3.10;99.90;;;;;;6124221;23;20101;-75
2022/01/12 08:13:52;;;;;;;37.35;8.13;;;3.30;99.90;;;;;;6099910;23;20022;-77
2022/01/12 08:16:48;;;;;;;29.23;7.78;;;3.20;99.90;;;;;;6124741;23;20072;-78
2022/01/12 08:19:18;;;;;;;41.78;8.35;;;2.90;99.90;;;;;;6039985;23;20027;-73
2022/01/12 08:21:43;;;;;;;35.08;7.22;;;3.10;99.90;;;;;;6016111;23;20019;-71
2022/01/12 08:24:11;;;;;;;99.72;9.93;;;3.50;99.90;;;;;;6033595;23;20045;-71
2022/01/12 08:26:39;;;;;;;48.53;8.93;;;3.10;99.90;;;;;;6011352;23;20029;-73
2022/01/12 08:29:05;;;;;;;52.35;9.05;;;3.00;99.90;;;;;;5989038;23;20054;-71
2022/01/12 08:31:38;;;;;;;64.63;8.45;;;3.10;99.90;;;;;;6038625;23;20086;-73
2022/01/12 08:34:04;;;;;;;38.45;7.97;;;3.20;99.90;;;;;;6040339;23;20385;-76
2022/01/12 08:36:35;;;;;;;47.38;7.18;;;4.10;99.90;;;;;;6064244;23;20018;-76
2022/01/12 08:39:10;;;;;;;88.90;7.93;;;3.20;99.90;;;;;;6017963;23;20015;-76
2022/01/12 08:41:45;;;;;;;48.83;7.20;;;3.20;99.90;;;;;;6042320;23;20094;-76
2022/01/12 08:44:12;;;;;;;47.40;6.85;;;4.00;99.90;;;;;;6117106;23;20071;-75
2022/01/12 08:46:40;;;;;;;33.30;6.82;;;3.90;99.90;;;;;;6073765;23;20380;-75
2022/01/12 08:49:07;;;;;;;34.83;7.28;;;3.30;99.90;;;;;;6121457;23;20372;-75
2022/01/12 08:51:33;;;;;;;66.43;7.22;;;3.20;99.90;;;;;;6121811;23;20025;-75
2022/01/12 08:53:59;;;;;;;46.05;7.43;;;3.50;99.90;;;;;;6122263;23;20014;-69
2022/01/12 08:56:31;;;;;;;26.75;7.40;;;3.70;99.90;;;;;;6141363;23;20348;-69
2022/01/12 08:59:07;;;;;;;58.30;6.95;;;3.30;99.90;;;;;;6152590;23;20013;-69
2022/01/12 09:01:33;;;;;;;39.58;6.47;;;3.40;99.90;;;;;;6154193;23;20021;-69
2022/01/12 09:04:02;;;;;;;25.50;6.85;;;3.40;99.90;;;;;;6128225;23;20085;-69
2022/01/12 09:06:27;;;;;;;29.13;6.65;;;3.40;99.90;;;;;;6153545;23;20017;-69
2022/01/12 09:08:53;;;;;;;16.27;5.63;;;3.40;99.90;;;;;;6152623;23;20017;-69
2022/01/12 09:11:19;;;;;;;36.65;5.70;;;3.70;99.90;;;;;;6153879;23;20020;-69
2022/01/12 09:13:45;;;;;;;46.65;6.30;;;3.40;99.90;;;;;;6128648;23;20025;-69
2022/01/12 09:16:13;;;;;;;66.43;6.20;;;3.40;99.90;;;;;;6153421;23;20013;-69
2022/01/12 09:18:39;;;;;;;36.70;5.50;;;3.40;99.90;;;;;;6153019;23;20479;-69
2022/01/12 09:21:05;;;;;;;46.65;5.65;;;3.40;99.90;;;;;;6152594;23;20021;-69
2022/01/12 09:23:31;;;;;;;48.13;6.05;;;3.50;99.90;;;;;;6127962;23;20014;-69
2022/01/12 09:25:57;;;;;;;67.28;6.57;;;3.40;99.90;;;;;;6154488;23;20024;-70
2022/01/12 09:28:26;;;;;;;86.28;6.28;;;3.50;99.90;;;;;;6148430;23;20085;-69
2022/01/12 09:30:52;;;;;;;37.90;6.13;;;3.50;99.90;;;;;;6150078;23;20017;-74
2022/01/12 09:33:21;;;;;;;96.03;7.47;;;3.50;99.90;;;;;;6150913;23;20072;-73
2022/01/12 09:35:50;;;;;;;38.80;6.18;;;3.50;99.90;;;;;;6149849;23;20072;-70
2022/01/12 09:38:20;;;;;;;30.20;6.45;;;3.80;99.90;;;;;;6150987;23;20511;-70
2022/01/12 09:40:50;;;;;;;60.47;6.90;;;3.40;99.90;;;;;;6125879;23;20028;-69
2022/01/12 09:43:43;;;;;;;56.13;6.68;;;3.60;99.90;;;;;;6158830;23;20024;-69
2022/01/12 09:46:11;;;;;;;55.47;6.63;;;3.70;99.90;;;;;;6107101;23;20025;-72
2022/01/12 09:48:37;;;;;;;38.33;6.22;;;3.70;99.90;;;;;;6155850;23;20009;-73
2022/01/12 09:51:06;;;;;;;43.67;5.50;;;3.70;99.90;;;;;;6182614;23;20102;-73
2022/01/12 09:53:35;;;;;;;38.08;5.85;;;3.70;99.90;;;;;;6155793;23;20455;-73
2022/01/12 09:56:18;;;;;;;33.50;6.00;;;3.70;99.90;;;;;;6182244;23;20016;-74
2022/01/12 09:58:46;;;;;;;36.45;5.85;;;3.80;99.90;;;;;;6155513;23;20056;-71
2022/01/12 10:01:12;;;;;;;27.98;6.20;;;3.80;99.90;;;;;;6154934;23;20013;-74
2022/01/12 10:03:41;;;;;;;34.65;6.75;;;4.40;99.90;;;;;;6154970;23;20009;-74
2022/01/12 10:06:17;;;;;;;30.15;6.22;;;3.90;99.90;;;;;;6181311;23;20301;-74
2022/01/12 10:08:43;;;;;;;39.67;6.47;;;3.90;99.90;;;;;;6155663;23;20017;-74
2022/01/12 10:11:12;;;;;;;28.98;6.50;;;4.10;99.90;;;;;;6155377;23;20332;-74
2022/01/12 10:13:40;;;;;;;46.65;7.00;;;4.00;99.90;;;;;;6130955;23;20096;-74
2022/01/12 10:16:26;;;;;;;28.30;6.40;;;4.10;99.90;;;;;;6155288;23;20336;-74
2022/01/12 10:18:58;;;;;;;30.97;9.03;;;4.10;99.90;;;;;;6181893;23;20323;-74
2022/01/12 10:21:34;;;;;;;25.90;5.47;;;4.10;99.90;;;;;;6129919;23;20021;-73
2022/01/12 10:24:07;;;;;;;25.67;6.13;;;4.20;99.90;;;;;;6156428;23;20139;-74
2022/01/12 10:26:41;;;;;;;26.88;5.95;;;4.30;99.90;;;;;;6183752;23;20009;-74
2022/01/12 10:29:13;;;;;;;26.10;5.97;;;4.30;99.90;;;;;;6184466;23;20083;-74
2022/01/12 10:31:51;;;;;;;45.83;6.57;;;4.30;99.90;;;;;;6157634;23;20439;-74
2022/01/12 10:34:19;;;;;;;124.00;6.90;;;4.40;99.90;;;;;;6184264;23;20071;-74
2022/01/12 10:36:47;;;;;;;38.80;6.40;;;4.40;99.90;;;;;;6132662;23;20021;-74
2022/01/12 10:39:14;;;;;;;35.33;6.05;;;4.50;99.90;;;;;;6184140;23;20017;-74
2022/01/12 10:41:58;;;;;;;49.35;6.47;;;4.60;99.90;;;;;;6182923;23;20072;-74
2022/01/12 10:44:32;;;;;;;16.50;5.95;;;4.50;99.90;;;;;;6183423;23;20017;-74
2022/01/12 10:47:13;;;;;;;36.20;6.70;;;4.50;99.90;;;;;;6156993;23;20032;-74
2022/01/12 10:49:56;;;;;;;49.33;7.25;;;4.60;99.90;;;;;;6157290;23;20117;-74
2022/01/12 10:52:24;;;;;;;35.78;6.53;;;4.60;99.90;;;;;;6156688;23;20012;-74
2022/01/12 10:54:53;;;;;;;46.80;7.30;;;4.60;99.90;;;;;;6183463;23;20521;-74
2022/01/12 10:57:29;;;;;;;34.30;7.40;;;4.70;99.90;;;;;;6182287;23;20024;-74
2022/01/12 11:00:20;;;;;;;34.20;6.55;;;4.90;99.90;;;;;;6156585;23;20063;-74
2022/01/12 11:02:51;;;;;;;32.17;6.93;;;4.80;99.90;;;;;;6156528;23;20009;-74
2022/01/12 11:05:18;;;;;;;44.08;7.03;;;4.80;99.90;;;;;;6155691;23;20509;-74
2022/01/12 11:07:44;;;;;;;20.20;6.82;;;4.90;99.90;;;;;;6182080;23;20077;-77
2022/01/12 11:10:13;;;;;;;20.60;7.13;;;5.00;99.90;;;;;;6156972;23;20021;-77
2022/01/12 11:12:40;;;;;;;51.28;7.05;;;5.00;99.90;;;;;;6132500;23;20020;-75
2022/01/12 11:15:17;;;;;;;31.77;6.97;;;5.10;99.90;;;;;;6157460;23;20013;-76
2022/01/12 11:17:51;;;;;;;17.63;6.55;;;5.10;99.90;;;;;;6185707;23;20013;-76
2022/01/12 11:20:37;;;;;;;21.33;6.90;;;5.10;99.90;;;;;;6186094;23;20049;-76
2022/01/12 11:23:11;;;;;;;22.37;7.03;;;5.10;99.90;;;;;;6186018;23;20044;-76
2022/01/12 11:25:42;;;;;;;30.83;7.45;;;5.20;99.90;;;;;;6159526;23;20017;-76
2022/01/12 11:28:12;;;;;;;23.52;6.75;;;5.10;99.90;;;;;;6159473;23;20312;-76
2022/01/12 11:30:44;;;;;;;18.88;6.63;;;5.30;99.90;;;;;;6158319;23;20443;-76
2022/01/12 11:33:12;;;;;;;27.38;7.22;;;5.30;99.90;;;;;;6159235;23;20020;-76
2022/01/12 11:35:41;;;;;;;18.15;7.53;;;5.40;99.90;;;;;;6159040;23;20447;-76
2022/01/12 11:38:18;;;;;;;23.52;7.40;;;5.80;99.90;;;;;;6134977;23;20472;-77
2022/01/12 11:40:44;;;;;;;17.58;8.05;;;5.40;99.90;;;;;;6185523;23;20068;-77
2022/01/12 11:43:29;;;;;;;18.08;8.30;;;5.80;99.90;;;;;;6185536;23;20017;-77
2022/01/12 11:46:03;;;;;;;21.43;8.00;;;5.50;99.90;;;;;;6159460;23;20072;-77
2022/01/12 11:48:52;;;;;;;30.23;8.80;;;5.60;99.90;;;;;;6134084;23;20021;-76
2022/01/12 11:51:32;;;;;;;21.27;8.93;;;5.60;99.90;;;;;;6159371;23;20020;-76
2022/01/12 11:54:07;;;;;;;16.60;7.85;;;5.70;99.90;;;;;;6159372;23;20460;-76
2022/01/12 11:56:33;;;;;;;22.27;8.68;;;5.70;99.90;;;;;;6185502;23;20023;-76
2022/01/12 11:59:11;;;;;;;26.50;9.60;;;5.70;99.90;;;;;;6185648;23;20017;-76
2022/01/12 12:01:51;;;;;;;18.25;9.00;;;5.70;99.90;;;;;;6159092;23;20023;-76
2022/01/12 12:04:33;;;;;;;24.88;8.95;;;5.80;99.90;;;;;;6158918;23;20305;-77
2022/01/12 12:07:14;;;;;;;23.13;9.30;;;5.80;99.90;;;;;;6133916;23;20025;-76
2022/01/12 12:09:56;;;;;;;26.85;9.88;;;5.80;99.90;;;;;;6134383;23;20017;-77
2022/01/12 12:12:32;;;;;;;24.35;9.90;;;6.20;99.90;;;;;;6185662;23;20301;-77
2022/01/12 12:15:05;;;;;;;27.05;10.20;;;5.80;99.90;;;;;;6134594;23;20095;-76
2022/01/12 12:17:32;;;;;;;28.27;9.77;;;5.90;99.90;;;;;;6159097;23;20498;-76
2022/01/12 12:19:59;;;;;;;34.88;10.70;;;5.90;99.90;;;;;;6133926;23;20027;-76
2022/01/12 12:22:46;;;;;;;28.05;10.73;;;6.00;99.90;;;;;;6185790;23;20008;-76
2022/01/12 12:25:18;;;;;;;36.10;11.65;;;6.00;99.90;;;;;;6158848;23;20017;-76
2022/01/12 12:27:52;;;;;;;31.90;11.30;;;6.00;99.90;;;;;;6159177;23;20088;-76
2022/01/12 12:30:22;;;;;;;41.75;11.45;;;6.20;99.90;;;;;;6134127;23;20110;-76
2022/01/12 12:32:56;;;;;;;33.47;11.20;;;6.50;99.90;;;;;;6134293;23;20449;-76
2022/01/12 12:35:25;;;;;;;36.30;11.73;;;6.10;99.90;;;;;;6158934;23;20012;-76
2022/01/12 12:37:57;;;;;;;33.20;11.90;;;6.60;99.90;;;;;;6158290;23;20021;-76
2022/01/12 12:40:31;;;;;;;33.55;11.55;;;6.10;99.90;;;;;;6185034;23;20017;-76
2022/01/12 12:43:08;;;;;;;26.60;11.40;;;6.10;99.90;;;;;;6158767;23;20017;-76
2022/01/12 12:45:51;;;;;;;30.67;12.45;;;6.10;99.90;;;;;;6158442;23;20020;-76
2022/01/12 12:48:20;;;;;;;27.42;12.73;;;6.20;99.90;;;;;;6158547;23;20009;-76
2022/01/12 12:50:53;;;;;;;36.78;12.90;;;6.20;99.90;;;;;;6159029;23;20017;-76
2022/01/12 12:53:29;;;;;;;33.58;13.48;;;6.20;99.90;;;;;;6158677;23;20009;-76
2022/01/12 12:55:54;;;;;;;33.15;13.27;;;6.20;99.90;;;;;;6184081;23;20017;-76
2022/01/12 12:58:24;;;;;;;33.83;12.68;;;6.20;99.90;;;;;;6134169;23;20055;-77
2022/01/12 13:00:50;;;;;;;33.58;12.65;;;6.20;99.90;;;;;;6185366;23;20051;-76
2022/01/12 13:03:23;;;;;;;32.33;12.90;;;6.20;99.90;;;;;;6158580;23;20344;-76
2022/01/12 13:05:52;;;;;;;35.60;13.23;;;6.20;99.90;;;;;;6109769;23;20013;-77
2022/01/12 13:08:18;;;;;;;40.88;13.57;;;6.20;99.90;;;;;;6159421;23;20016;-77
2022/01/12 13:10:43;;;;;;;36.22;13.30;;;6.20;99.90;;;;;;6184847;23;20056;-77
2022/01/12 13:13:10;;;;;;;33.85;13.27;;;6.20;99.90;;;;;;6158749;23;20436;-77
2022/01/12 13:15:42;;;;;;;30.70;11.77;;;6.20;99.90;;;;;;6158780;23;20020;-77
2022/01/12 13:18:13;;;;;;;36.58;13.35;;;6.20;99.90;;;;;;6157935;23;20447;-78
2022/01/12 13:23:43;;;;;;;36.97;13.25;;;6.20;99.90;;;;;;6155063;23;20032;-77
2022/01/12 13:26:12;;;;;;;32.63;13.30;;;6.20;99.90;;;;;;6153249;23;20010;-77
2022/01/12 13:28:40;;;;;;;33.40;11.95;;;6.30;99.90;;;;;;6130119;23;20016;-79
2022/01/12 13:31:09;;;;;;;37.00;12.98;;;6.70;99.90;;;;;;6130145;23;20088;-79
2022/01/12 13:33:39;;;;;;;36.10;13.98;;;6.30;99.90;;;;;;6156469;23;20021;-79
2022/01/12 13:36:17;;;;;;;42.85;13.48;;;6.50;99.90;;;;;;6130824;23;20025;-79
2022/01/12 13:39:03;;;;;;;28.40;12.60;;;6.30;99.90;;;;;;6182694;23;20056;-79
2022/01/12 13:41:32;;;;;;;32.30;12.55;;;6.30;99.90;;;;;;6182389;23;20048;-79
2022/01/12 13:44:02;;;;;;;30.27;11.70;;;7.20;99.90;;;;;;6181601;23;20448;-71
2022/01/12 13:46:37;;;;;;;34.08;11.95;;;6.30;99.90;;;;;;6153131;23;20017;-75
2022/01/12 13:51:41;;;;;;;30.58;11.82;;;6.30;99.90;;;;;;6154822;23;20017;-73
2022/01/12 13:54:13;;;;;;;28.60;10.90;;;6.40;99.90;;;;;;6106464;23;20096;-75
2022/01/12 13:56:51;;;;;;;25.30;11.50;;;6.30;99.90;;;;;;6155870;23;20017;-75
2022/01/12 13:59:21;;;;;;;28.63;11.30;;;6.40;99.90;;;;;;6183772;23;20343;-75
2022/01/12 14:01:48;;;;;;;32.63;11.45;;;6.30;99.90;;;;;;6130979;23;20021;-74
2022/01/12 14:04:38;;;;;;;27.00;10.73;;;6.40;99.90;;;;;;6183143;23;20017;-74
2022/01/12 14:07:07;;;;;;;23.73;11.02;;;6.30;99.90;;;;;;6157758;23;20009;-74
2022/01/12 14:09:39;;;;;;;23.95;11.07;;;6.30;99.90;;;;;;6109102;23;20013;-74
2022/01/12 14:12:13;;;;;;;19.40;10.00;;;6.30;99.90;;;;;;6184287;23;20856;-74
2022/01/12 14:14:57;;;;;;;25.75;10.13;;;6.30;99.90;;;;;;6183281;23;20040;-74
2022/01/12 14:17:38;;;;;;;25.63;10.13;;;6.60;99.90;;;;;;6132250;23;20108;-74